sensor_id;sensor_type;location;lat;lon;timestamp;temperature;humidity
11599;DHT22;5855;48.840;9.188;2023-01-15T00:01:56;11.10;99.90
11599;DHT22;5855;48.840;9.188;2023-01-15T00:04:22;11.10;99.90
11599;DHT22;5855;48.840;9.188;2023-01-15T00:06:49;11.10;99.90
11599;DHT22;5855;48.840;9.188;2023-01-15T00:09:16;11.20;99.90
11599;DHT22;5855;48.840;9.188;2023-01-15T00:11:43;11.10;99.90
11599;DHT22;5855;48.840;9.188;2023-01-15T00:14:11;11.20;99.90
11599;DHT22;5855;48.840;9.188;2023-01-15T00:16:39;11.20;99.90
11599;DHT22;5855;48.840;9.188;2023-01-15T00:19:09;11.10;99.90
11599;DHT22;5855;48.840;9.188;2023-01-15T00:21:37;11.10;99.90
11599;DHT22;5855;48.840;9.188;2023-01-15T00:24:04;11.10;99.90
11599;DHT22;5855;48.840;9.188;2023-01-15T00:26:49;11.10;99.90
11599;DHT22;5855;48.840;9.188;2023-01-15T00:29:33;11.00;99.90
11599;DHT22;5855;48.840;9.188;2023-01-15T00:32:03;11.10;99.90
11599;DHT22;5855;48.840;9.188;2023-01-15T00:34:31;11.10;99.90
11599;DHT22;5855;48.840;9.188;2023-01-15T00:36:58;11.10;99.90
11599;DHT22;5855;48.840;9.188;2023-01-15T00:39:25;11.10;99.90
11599;DHT22;5855;48.840;9.188;2023-01-15T00:41:53;11.20;99.90
11599;DHT22;5855;48.840;9.188;2023-01-15T00:44:20;11.20;99.90
11599;DHT22;5855;48.840;9.188;2023-01-15T00:46:47;11.20;99.90
11599;DHT22;5855;48.840;9.188;2023-01-15T00:49:15;11.30;99.90
11599;DHT22;5855;48.840;9.188;2023-01-15T00:51:43;11.30;99.90
11599;DHT22;5855;48.840;9.188;2023-01-15T00:54:10;11.30;99.90
11599;DHT22;5855;48.840;9.188;2023-01-15T00:56:36;11.30;99.90
11599;DHT22;5855;48.840;9.188;2023-01-15T00:59:04;11.30;99.90
11599;DHT22;5855;48.840;9.188;2023-01-15T01:01:31;11.20;99.90
11599;DHT22;5855;48.840;9.188;2023-01-15T01:03:58;11.20;99.90
11599;DHT22;5855;48.840;9.188;2023-01-15T01:06:26;11.20;99.90
11599;DHT22;5855;48.840;9.188;2023-01-15T01:08:54;11.20;99.90
11599;DHT22;5855;48.840;9.188;2023-01-15T01:11:23;11.20;99.90
11599;DHT22;5855;48.840;9.188;2023-01-15T01:13:52;11.20;99.90
11599;DHT22;5855;48.840;9.188;2023-01-15T01:16:25;11.20;99.90
11599;DHT22;5855;48.840;9.188;2023-01-15T01:18:52;11.10;99.90
11599;DHT22;5855;48.840;9.188;2023-01-15T01:21:19;11.10;99.90
11599;DHT22;5855;48.840;9.188;2023-01-15T01:23:47;11.00;99.90
11599;DHT22;5855;48.840;9.188;2023-01-15T01:26:14;11.00;99.90
11599;DHT22;5855;48.840;9.188;2023-01-15T01:28:41;11.10;99.90
11599;DHT22;5855;48.840;9.188;2023-01-15T01:31:08;11.10;99.90
11599;DHT22;5855;48.840;9.188;2023-01-15T01:33:35;11.10;99.90
11599;DHT22;5855;48.840;9.188;2023-01-15T01:36:02;11.10;99.90
11599;DHT22;5855;48.840;9.188;2023-01-15T01:38:29;11.10;99.90
11599;DHT22;5855;48.840;9.188;2023-01-15T01:40:58;11.10;99.90
11599;DHT22;5855;48.840;9.188;2023-01-15T01:43:27;11.10;99.90
11599;DHT22;5855;48.840;9.188;2023-01-15T01:45:55;11.20;99.90
11599;DHT22;5855;48.840;9.188;2023-01-15T01:48:25;11.20;99.90
11599;DHT22;5855;48.840;9.188;2023-01-15T01:50:55;11.10;99.90
11599;DHT22;5855;48.840;9.188;2023-01-15T01:53:26;11.20;99.90
11599;DHT22;5855;48.840;9.188;2023-01-15T01:55:53;11.20;99.90
11599;DHT22;5855;48.840;9.188;2023-01-15T01:58:25;11.20;99.90
11599;DHT22;5855;48.840;9.188;2023-01-15T02:00:52;11.10;99.90
11599;DHT22;5855;48.840;9.188;2023-01-15T02:03:22;11.10;99.90
11599;DHT22;5855;48.840;9.188;2023-01-15T02:05:53;11.10;99.90
11599;DHT22;5855;48.840;9.188;2023-01-15T02:08:22;11.10;99.90
11599;DHT22;5855;48.840;9.188;2023-01-15T02:10:52;11.20;99.90
11599;DHT22;5855;48.840;9.188;2023-01-15T02:13:26;11.20;99.90
11599;DHT22;5855;48.840;9.188;2023-01-15T02:16:00;11.40;99.90
11599;DHT22;5855;48.840;9.188;2023-01-15T02:18:32;11.60;99.90
11599;DHT22;5855;48.840;9.188;2023-01-15T02:21:05;11.60;99.90
11599;DHT22;5855;48.840;9.188;2023-01-15T02:23:53;11.60;99.90
11599;DHT22;5855;48.840;9.188;2023-01-15T02:26:58;11.60;99.90
11599;DHT22;5855;48.840;9.188;2023-01-15T02:29:31;11.70;99.90
11599;DHT22;5855;48.840;9.188;2023-01-15T02:32:01;11.70;99.90
11599;DHT22;5855;48.840;9.188;2023-01-15T02:34:32;11.80;99.90
11599;DHT22;5855;48.840;9.188;2023-01-15T02:37:02;11.90;99.90
11599;DHT22;5855;48.840;9.188;2023-01-15T02:39:30;12.00;99.90
11599;DHT22;5855;48.840;9.188;2023-01-15T02:42:01;12.00;99.90
11599;DHT22;5855;48.840;9.188;2023-01-15T02:44:31;12.00;99.90
11599;DHT22;5855;48.840;9.188;2023-01-15T02:46:58;12.00;99.90
11599;DHT22;5855;48.840;9.188;2023-01-15T02:49:26;12.00;99.90
11599;DHT22;5855;48.840;9.188;2023-01-15T02:51:56;12.00;99.90
11599;DHT22;5855;48.840;9.188;2023-01-15T02:54:28;12.00;99.90
11599;DHT22;5855;48.840;9.188;2023-01-15T02:57:00;12.00;99.90
11599;DHT22;5855;48.840;9.188;2023-01-15T02:59:32;12.00;99.90
11599;DHT22;5855;48.840;9.188;2023-01-15T03:02:02;11.90;99.90
11599;DHT22;5855;48.840;9.188;2023-01-15T03:04:34;11.80;99.90
11599;DHT22;5855;48.840;9.188;2023-01-15T03:07:06;11.90;99.90
11599;DHT22;5855;48.840;9.188;2023-01-15T03:09:35;11.90;99.90
11599;DHT22;5855;48.840;9.188;2023-01-15T03:12:10;11.80;99.90
11599;DHT22;5855;48.840;9.188;2023-01-15T03:14:45;11.80;99.90
11599;DHT22;5855;48.840;9.188;2023-01-15T03:17:19;11.80;99.90
11599;DHT22;5855;48.840;9.188;2023-01-15T03:19:49;11.70;99.90
11599;DHT22;5855;48.840;9.188;2023-01-15T03:22:22;11.70;99.90
11599;DHT22;5855;48.840;9.188;2023-01-15T03:24:53;11.70;99.90
11599;DHT22;5855;48.840;9.188;2023-01-15T03:27:22;11.80;99.90
11599;DHT22;5855;48.840;9.188;2023-01-15T03:29:51;11.80;99.90
11599;DHT22;5855;48.840;9.188;2023-01-15T03:32:20;11.80;99.90
11599;DHT22;5855;48.840;9.188;2023-01-15T03:34:49;11.90;99.90
11599;DHT22;5855;48.840;9.188;2023-01-15T03:37:17;12.00;99.90
11599;DHT22;5855;48.840;9.188;2023-01-15T03:39:44;12.00;99.90
11599;DHT22;5855;48.840;9.188;2023-01-15T03:42:24;12.10;99.90
11599;DHT22;5855;48.840;9.188;2023-01-15T03:44:58;12.20;99.90
11599;DHT22;5855;48.840;9.188;2023-01-15T03:47:36;12.20;99.90
11599;DHT22;5855;48.840;9.188;2023-01-15T03:50:09;12.20;99.90
11599;DHT22;5855;48.840;9.188;2023-01-15T03:52:42;12.30;99.90
11599;DHT22;5855;48.840;9.188;2023-01-15T03:55:13;12.40;99.90
11599;DHT22;5855;48.840;9.188;2023-01-15T03:57:47;12.40;99.90
11599;DHT22;5855;48.840;9.188;2023-01-15T04:00:20;12.50;99.90
11599;DHT22;5855;48.840;9.188;2023-01-15T04:02:48;12.50;99.90
11599;DHT22;5855;48.840;9.188;2023-01-15T04:05:17;12.50;99.90
11599;DHT22;5855;48.840;9.188;2023-01-15T04:07:45;12.60;99.90
11599;DHT22;5855;48.840;9.188;2023-01-15T04:10:12;12.60;99.90
11599;DHT22;5855;48.840;9.188;2023-01-15T04:12:39;12.60;99.90
11599;DHT22;5855;48.840;9.188;2023-01-15T04:15:09;12.70;99.90
11599;DHT22;5855;48.840;9.188;2023-01-15T04:17:36;12.70;99.90
11599;DHT22;5855;48.840;9.188;2023-01-15T04:20:04;12.70;99.90
11599;DHT22;5855;48.840;9.188;2023-01-15T04:22:32;12.70;99.90
11599;DHT22;5855;48.840;9.188;2023-01-15T04:25:00;12.70;99.90
11599;DHT22;5855;48.840;9.188;2023-01-15T04:27:27;12.70;99.90
11599;DHT22;5855;48.840;9.188;2023-01-15T04:29:54;12.70;99.90
11599;DHT22;5855;48.840;9.188;2023-01-15T04:32:22;12.70;99.90
11599;DHT22;5855;48.840;9.188;2023-01-15T04:34:49;12.60;99.90
11599;DHT22;5855;48.840;9.188;2023-01-15T04:37:16;12.70;99.90
11599;DHT22;5855;48.840;9.188;2023-01-15T04:39:43;12.70;99.90
11599;DHT22;5855;48.840;9.188;2023-01-15T04:42:11;12.70;99.90
11599;DHT22;5855;48.840;9.188;2023-01-15T04:44:55;12.70;99.90
11599;DHT22;5855;48.840;9.188;2023-01-15T04:47:23;12.70;99.90
11599;DHT22;5855;48.840;9.188;2023-01-15T04:49:50;12.70;99.90
11599;DHT22;5855;48.840;9.188;2023-01-15T04:52:17;12.70;99.90
11599;DHT22;5855;48.840;9.188;2023-01-15T04:54:44;12.70;99.90
11599;DHT22;5855;48.840;9.188;2023-01-15T04:57:11;12.60;99.90
11599;DHT22;5855;48.840;9.188;2023-01-15T04:59:38;12.50;99.90
11599;DHT22;5855;48.840;9.188;2023-01-15T05:02:04;12.50;99.90
11599;DHT22;5855;48.840;9.188;2023-01-15T05:04:33;12.50;99.90
11599;DHT22;5855;48.840;9.188;2023-01-15T05:07:00;12.50;99.90
11599;DHT22;5855;48.840;9.188;2023-01-15T05:09:27;12.50;99.90
11599;DHT22;5855;48.840;9.188;2023-01-15T05:11:54;12.50;99.90
11599;DHT22;5855;48.840;9.188;2023-01-15T05:14:21;12.50;99.90
11599;DHT22;5855;48.840;9.188;2023-01-15T05:16:48;12.50;99.90
11599;DHT22;5855;48.840;9.188;2023-01-15T05:19:14;12.20;99.90
11599;DHT22;5855;48.840;9.188;2023-01-15T05:21:43;11.70;99.90
11599;DHT22;5855;48.840;9.188;2023-01-15T05:24:12;11.20;99.90
11599;DHT22;5855;48.840;9.188;2023-01-15T05:26:40;10.70;99.90
11599;DHT22;5855;48.840;9.188;2023-01-15T05:29:07;10.30;99.90
11599;DHT22;5855;48.840;9.188;2023-01-15T05:31:34;9.80;99.90
11599;DHT22;5855;48.840;9.188;2023-01-15T05:34:01;9.60;99.90
11599;DHT22;5855;48.840;9.188;2023-01-15T05:36:29;9.40;99.90
11599;DHT22;5855;48.840;9.188;2023-01-15T05:38:58;9.40;99.90
11599;DHT22;5855;48.840;9.188;2023-01-15T05:41:26;9.30;99.90
11599;DHT22;5855;48.840;9.188;2023-01-15T05:44:18;9.10;99.90
11599;DHT22;5855;48.840;9.188;2023-01-15T05:46:45;9.10;99.90
11599;DHT22;5855;48.840;9.188;2023-01-15T05:49:14;9.00;99.90
11599;DHT22;5855;48.840;9.188;2023-01-15T05:51:41;9.00;99.90
11599;DHT22;5855;48.840;9.188;2023-01-15T05:54:12;8.90;99.90
11599;DHT22;5855;48.840;9.188;2023-01-15T05:56:39;8.90;99.90
11599;DHT22;5855;48.840;9.188;2023-01-15T05:59:07;8.80;99.90
11599;DHT22;5855;48.840;9.188;2023-01-15T06:01:34;8.70;99.90
11599;DHT22;5855;48.840;9.188;2023-01-15T06:04:03;8.70;99.90
11599;DHT22;5855;48.840;9.188;2023-01-15T06:06:30;8.60;99.90
11599;DHT22;5855;48.840;9.188;2023-01-15T06:08:57;8.50;99.90
11599;DHT22;5855;48.840;9.188;2023-01-15T06:11:25;8.40;99.90
11599;DHT22;5855;48.840;9.188;2023-01-15T06:13:52;8.50;99.90
11599;DHT22;5855;48.840;9.188;2023-01-15T06:16:20;8.40;99.90
11599;DHT22;5855;48.840;9.188;2023-01-15T06:18:47;8.40;99.90
11599;DHT22;5855;48.840;9.188;2023-01-15T06:21:14;8.30;99.90
11599;DHT22;5855;48.840;9.188;2023-01-15T06:23:42;8.20;99.90
11599;DHT22;5855;48.840;9.188;2023-01-15T06:26:10;8.30;99.90
11599;DHT22;5855;48.840;9.188;2023-01-15T06:28:39;8.20;99.90
11599;DHT22;5855;48.840;9.188;2023-01-15T06:31:08;8.20;99.90
11599;DHT22;5855;48.840;9.188;2023-01-15T06:33:35;8.10;99.90
11599;DHT22;5855;48.840;9.188;2023-01-15T06:36:03;8.10;99.90
11599;DHT22;5855;48.840;9.188;2023-01-15T06:38:30;8.10;99.90
11599;DHT22;5855;48.840;9.188;2023-01-15T06:40:58;7.90;99.90
11599;DHT22;5855;48.840;9.188;2023-01-15T06:43:25;7.90;99.90
11599;DHT22;5855;48.840;9.188;2023-01-15T06:46:11;7.90;99.90
11599;DHT22;5855;48.840;9.188;2023-01-15T06:48:55;7.80;99.90
11599;DHT22;5855;48.840;9.188;2023-01-15T06:51:22;7.70;99.90
11599;DHT22;5855;48.840;9.188;2023-01-15T06:53:49;7.60;99.90
11599;DHT22;5855;48.840;9.188;2023-01-15T06:56:16;7.60;99.90
11599;DHT22;5855;48.840;9.188;2023-01-15T06:58:43;7.40;99.90
11599;DHT22;5855;48.840;9.188;2023-01-15T07:01:13;7.30;99.90
11599;DHT22;5855;48.840;9.188;2023-01-15T07:03:40;7.20;99.90
11599;DHT22;5855;48.840;9.188;2023-01-15T07:06:09;7.10;99.90
11599;DHT22;5855;48.840;9.188;2023-01-15T07:08:37;7.10;99.90
11599;DHT22;5855;48.840;9.188;2023-01-15T07:11:05;7.10;99.90
11599;DHT22;5855;48.840;9.188;2023-01-15T07:13:33;7.00;99.90
11599;DHT22;5855;48.840;9.188;2023-01-15T07:16:01;7.00;99.90
11599;DHT22;5855;48.840;9.188;2023-01-15T07:18:31;6.80;99.90
11599;DHT22;5855;48.840;9.188;2023-01-15T07:20:59;6.80;99.90
11599;DHT22;5855;48.840;9.188;2023-01-15T07:23:26;6.80;99.90
11599;DHT22;5855;48.840;9.188;2023-01-15T07:25:54;6.70;99.90
11599;DHT22;5855;48.840;9.188;2023-01-15T07:28:23;6.70;99.90
11599;DHT22;5855;48.840;9.188;2023-01-15T07:30:50;6.70;99.90
11599;DHT22;5855;48.840;9.188;2023-01-15T07:33:17;6.60;99.90
11599;DHT22;5855;48.840;9.188;2023-01-15T07:35:45;6.60;99.90
11599;DHT22;5855;48.840;9.188;2023-01-15T07:38:12;6.60;99.90
11599;DHT22;5855;48.840;9.188;2023-01-15T07:40:39;6.60;99.90
11599;DHT22;5855;48.840;9.188;2023-01-15T07:43:05;6.50;99.90
11599;DHT22;5855;48.840;9.188;2023-01-15T07:45:50;6.50;99.90
11599;DHT22;5855;48.840;9.188;2023-01-15T07:48:34;6.50;99.90
11599;DHT22;5855;48.840;9.188;2023-01-15T07:51:20;6.50;99.90
11599;DHT22;5855;48.840;9.188;2023-01-15T07:53:46;6.50;99.90
11599;DHT22;5855;48.840;9.188;2023-01-15T07:56:13;6.50;99.90
11599;DHT22;5855;48.840;9.188;2023-01-15T07:58:40;6.50;99.90
11599;DHT22;5855;48.840;9.188;2023-01-15T08:01:13;6.50;99.90
11599;DHT22;5855;48.840;9.188;2023-01-15T08:03:40;6.40;99.90
11599;DHT22;5855;48.840;9.188;2023-01-15T08:06:07;6.50;99.90
11599;DHT22;5855;48.840;9.188;2023-01-15T08:08:35;6.40;99.90
11599;DHT22;5855;48.840;9.188;2023-01-15T08:11:02;6.40;99.90
11599;DHT22;5855;48.840;9.188;2023-01-15T08:13:46;6.50;99.90
11599;DHT22;5855;48.840;9.188;2023-01-15T08:16:34;6.50;99.90
11599;DHT22;5855;48.840;9.188;2023-01-15T08:19:01;6.40;99.90
11599;DHT22;5855;48.840;9.188;2023-01-15T08:21:28;6.50;99.90
11599;DHT22;5855;48.840;9.188;2023-01-15T08:23:56;6.50;99.90
11599;DHT22;5855;48.840;9.188;2023-01-15T08:26:23;6.50;99.90
11599;DHT22;5855;48.840;9.188;2023-01-15T08:28:51;6.50;99.90
11599;DHT22;5855;48.840;9.188;2023-01-15T08:31:21;6.50;99.90
11599;DHT22;5855;48.840;9.188;2023-01-15T08:33:48;6.50;99.90
11599;DHT22;5855;48.840;9.188;2023-01-15T08:36:14;6.50;99.90
11599;DHT22;5855;48.840;9.188;2023-01-15T08:38:42;6.30;99.90
11599;DHT22;5855;48.840;9.188;2023-01-15T08:41:10;6.30;99.90
11599;DHT22;5855;48.840;9.188;2023-01-15T08:43:37;6.40;99.90
11599;DHT22;5855;48.840;9.188;2023-01-15T08:46:05;6.40;99.90
11599;DHT22;5855;48.840;9.188;2023-01-15T08:48:33;6.40;99.90
11599;DHT22;5855;48.840;9.188;2023-01-15T08:51:03;6.30;99.90
11599;DHT22;5855;48.840;9.188;2023-01-15T08:53:30;6.40;99.90
11599;DHT22;5855;48.840;9.188;2023-01-15T08:55:57;6.30;99.90
11599;DHT22;5855;48.840;9.188;2023-01-15T08:58:26;6.30;99.90
11599;DHT22;5855;48.840;9.188;2023-01-15T09:00:54;6.30;99.90
11599;DHT22;5855;48.840;9.188;2023-01-15T09:03:21;6.20;99.90
11599;DHT22;5855;48.840;9.188;2023-01-15T09:05:47;6.20;99.90
11599;DHT22;5855;48.840;9.188;2023-01-15T09:08:14;6.20;99.90
11599;DHT22;5855;48.840;9.188;2023-01-15T09:10:41;6.10;99.90
11599;DHT22;5855;48.840;9.188;2023-01-15T09:13:08;6.10;99.90
11599;DHT22;5855;48.840;9.188;2023-01-15T09:15:36;6.10;99.90
11599;DHT22;5855;48.840;9.188;2023-01-15T09:18:03;6.10;99.90
11599;DHT22;5855;48.840;9.188;2023-01-15T09:20:30;6.10;99.90
11599;DHT22;5855;48.840;9.188;2023-01-15T09:22:57;6.10;99.90
11599;DHT22;5855;48.840;9.188;2023-01-15T09:25:23;6.10;99.90
11599;DHT22;5855;48.840;9.188;2023-01-15T09:27:50;6.20;99.90
11599;DHT22;5855;48.840;9.188;2023-01-15T09:30:21;6.20;99.90
11599;DHT22;5855;48.840;9.188;2023-01-15T09:32:49;6.20;99.90
11599;DHT22;5855;48.840;9.188;2023-01-15T09:35:16;6.10;99.90
11599;DHT22;5855;48.840;9.188;2023-01-15T09:37:43;6.20;99.90
11599;DHT22;5855;48.840;9.188;2023-01-15T09:40:25;6.20;99.90
11599;DHT22;5855;48.840;9.188;2023-01-15T09:42:59;6.20;99.90
11599;DHT22;5855;48.840;9.188;2023-01-15T09:45:36;6.30;99.90
11599;DHT22;5855;48.840;9.188;2023-01-15T09:48:19;6.30;99.90
11599;DHT22;5855;48.840;9.188;2023-01-15T09:51:09;6.30;99.90
11599;DHT22;5855;48.840;9.188;2023-01-15T09:53:52;6.20;99.90
11599;DHT22;5855;48.840;9.188;2023-01-15T09:56:23;6.20;99.90
11599;DHT22;5855;48.840;9.188;2023-01-15T09:58:53;6.20;99.90
11599;DHT22;5855;48.840;9.188;2023-01-15T10:01:25;6.30;99.90
11599;DHT22;5855;48.840;9.188;2023-01-15T10:03:58;6.40;99.90
11599;DHT22;5855;48.840;9.188;2023-01-15T10:06:28;6.30;99.90
11599;DHT22;5855;48.840;9.188;2023-01-15T10:09:01;6.30;99.90
11599;DHT22;5855;48.840;9.188;2023-01-15T10:11:42;6.30;99.90
11599;DHT22;5855;48.840;9.188;2023-01-15T10:14:36;6.20;99.90
11599;DHT22;5855;48.840;9.188;2023-01-15T10:17:17;6.20;99.90
11599;DHT22;5855;48.840;9.188;2023-01-15T10:19:46;6.20;99.90
11599;DHT22;5855;48.840;9.188;2023-01-15T10:22:26;6.10;99.90
11599;DHT22;5855;48.840;9.188;2023-01-15T10:24:56;6.10;99.90
11599;DHT22;5855;48.840;9.188;2023-01-15T10:27:35;6.00;99.90
11599;DHT22;5855;48.840;9.188;2023-01-15T10:30:10;6.00;99.90
11599;DHT22;5855;48.840;9.188;2023-01-15T10:32:43;5.90;99.90
11599;DHT22;5855;48.840;9.188;2023-01-15T10:35:26;5.90;99.90
11599;DHT22;5855;48.840;9.188;2023-01-15T10:37:59;5.80;99.90
11599;DHT22;5855;48.840;9.188;2023-01-15T10:40:43;5.70;99.90
11599;DHT22;5855;48.840;9.188;2023-01-15T10:43:18;5.70;99.90
11599;DHT22;5855;48.840;9.188;2023-01-15T10:45:50;5.50;99.90
11599;DHT22;5855;48.840;9.188;2023-01-15T10:48:24;5.40;99.90
11599;DHT22;5855;48.840;9.188;2023-01-15T10:50:55;5.40;99.90
11599;DHT22;5855;48.840;9.188;2023-01-15T10:53:30;5.30;99.90
11599;DHT22;5855;48.840;9.188;2023-01-15T10:56:04;5.20;99.90
11599;DHT22;5855;48.840;9.188;2023-01-15T10:58:36;5.10;99.90
11599;DHT22;5855;48.840;9.188;2023-01-15T11:01:09;4.90;99.90
11599;DHT22;5855;48.840;9.188;2023-01-15T11:03:39;4.80;99.90
11599;DHT22;5855;48.840;9.188;2023-01-15T11:06:13;4.70;99.90
11599;DHT22;5855;48.840;9.188;2023-01-15T11:08:43;4.70;99.90
11599;DHT22;5855;48.840;9.188;2023-01-15T11:11:18;4.70;99.90
11599;DHT22;5855;48.840;9.188;2023-01-15T11:13:52;4.70;99.90
11599;DHT22;5855;48.840;9.188;2023-01-15T11:16:37;4.70;99.90
11599;DHT22;5855;48.840;9.188;2023-01-15T11:19:28;4.70;99.90
11599;DHT22;5855;48.840;9.188;2023-01-15T11:22:08;4.60;99.90
11599;DHT22;5855;48.840;9.188;2023-01-15T11:24:37;4.60;99.90
11599;DHT22;5855;48.840;9.188;2023-01-15T11:27:15;4.60;99.90
11599;DHT22;5855;48.840;9.188;2023-01-15T11:29:43;4.50;99.90
11599;DHT22;5855;48.840;9.188;2023-01-15T11:32:19;4.50;99.90
11599;DHT22;5855;48.840;9.188;2023-01-15T11:34:55;4.40;99.90
11599;DHT22;5855;48.840;9.188;2023-01-15T11:37:24;4.40;99.90
11599;DHT22;5855;48.840;9.188;2023-01-15T11:39:53;4.40;99.90
11599;DHT22;5855;48.840;9.188;2023-01-15T11:42:21;4.30;99.90
11599;DHT22;5855;48.840;9.188;2023-01-15T11:45:13;4.30;99.90
11599;DHT22;5855;48.840;9.188;2023-01-15T11:47:58;4.20;99.90
11599;DHT22;5855;48.840;9.188;2023-01-15T11:50:54;4.20;99.90
11599;DHT22;5855;48.840;9.188;2023-01-15T11:53:25;4.20;99.90
11599;DHT22;5855;48.840;9.188;2023-01-15T11:55:57;4.10;99.90
11599;DHT22;5855;48.840;9.188;2023-01-15T11:58:30;4.20;99.90
11599;DHT22;5855;48.840;9.188;2023-01-15T12:00:58;4.20;99.90
11599;DHT22;5855;48.840;9.188;2023-01-15T12:03:28;4.30;99.90
11599;DHT22;5855;48.840;9.188;2023-01-15T12:05:59;4.20;99.90
11599;DHT22;5855;48.840;9.188;2023-01-15T12:08:42;4.20;99.90
11599;DHT22;5855;48.840;9.188;2023-01-15T12:14:40;4.20;99.90
11599;DHT22;5855;48.840;9.188;2023-01-15T12:17:30;4.20;99.90
11599;DHT22;5855;48.840;9.188;2023-01-15T12:20:07;4.30;99.90
11599;DHT22;5855;48.840;9.188;2023-01-15T12:22:49;4.30;99.90
11599;DHT22;5855;48.840;9.188;2023-01-15T12:25:39;4.30;99.90
11599;DHT22;5855;48.840;9.188;2023-01-15T12:28:11;4.40;99.90
11599;DHT22;5855;48.840;9.188;2023-01-15T12:30:45;4.30;99.90
11599;DHT22;5855;48.840;9.188;2023-01-15T12:33:21;4.30;99.90
11599;DHT22;5855;48.840;9.188;2023-01-15T12:35:55;4.40;99.90
11599;DHT22;5855;48.840;9.188;2023-01-15T12:38:33;4.40;99.90
11599;DHT22;5855;48.840;9.188;2023-01-15T12:41:09;4.50;99.90
11599;DHT22;5855;48.840;9.188;2023-01-15T12:43:37;4.50;99.90
11599;DHT22;5855;48.840;9.188;2023-01-15T12:46:24;4.50;99.90
11599;DHT22;5855;48.840;9.188;2023-01-15T12:48:56;4.50;99.90
11599;DHT22;5855;48.840;9.188;2023-01-15T12:51:32;4.50;99.90
11599;DHT22;5855;48.840;9.188;2023-01-15T12:54:04;4.60;99.90
11599;DHT22;5855;48.840;9.188;2023-01-15T12:56:44;4.60;99.90
11599;DHT22;5855;48.840;9.188;2023-01-15T12:59:17;4.60;99.90
11599;DHT22;5855;48.840;9.188;2023-01-15T13:01:51;4.70;99.90
11599;DHT22;5855;48.840;9.188;2023-01-15T13:04:23;4.80;99.90
11599;DHT22;5855;48.840;9.188;2023-01-15T13:06:55;4.80;99.90
11599;DHT22;5855;48.840;9.188;2023-01-15T13:09:32;4.80;99.90
11599;DHT22;5855;48.840;9.188;2023-01-15T13:12:02;4.80;99.90
11599;DHT22;5855;48.840;9.188;2023-01-15T13:14:33;4.90;99.90
11599;DHT22;5855;48.840;9.188;2023-01-15T13:17:05;5.00;99.90
11599;DHT22;5855;48.840;9.188;2023-01-15T13:19:41;5.10;99.90
11599;DHT22;5855;48.840;9.188;2023-01-15T13:22:15;5.20;99.90
11599;DHT22;5855;48.840;9.188;2023-01-15T13:24:59;5.10;99.90
11599;DHT22;5855;48.840;9.188;2023-01-15T13:27:44;5.20;99.90
11599;DHT22;5855;48.840;9.188;2023-01-15T13:30:30;5.20;99.90
11599;DHT22;5855;48.840;9.188;2023-01-15T13:33:10;5.20;99.90
11599;DHT22;5855;48.840;9.188;2023-01-15T13:35:43;5.30;99.90
11599;DHT22;5855;48.840;9.188;2023-01-15T13:38:17;5.30;99.90
11599;DHT22;5855;48.840;9.188;2023-01-15T13:40:47;5.50;99.90
11599;DHT22;5855;48.840;9.188;2023-01-15T13:43:27;5.60;99.90
11599;DHT22;5855;48.840;9.188;2023-01-15T13:45:55;6.50;99.90
11599;DHT22;5855;48.840;9.188;2023-01-15T13:48:28;9.00;99.90
11599;DHT22;5855;48.840;9.188;2023-01-15T13:50:57;10.80;99.90
11599;DHT22;5855;48.840;9.188;2023-01-15T13:53:26;11.00;99.90
11599;DHT22;5855;48.840;9.188;2023-01-15T13:55:55;12.00;99.90
11599;DHT22;5855;48.840;9.188;2023-01-15T13:58:27;13.80;99.90
11599;DHT22;5855;48.840;9.188;2023-01-15T14:01:02;15.50;99.90
11599;DHT22;5855;48.840;9.188;2023-01-15T14:03:31;17.30;96.60
11599;DHT22;5855;48.840;9.188;2023-01-15T14:06:00;18.30;93.20
11599;DHT22;5855;48.840;9.188;2023-01-15T14:08:36;18.60;91.80
11599;DHT22;5855;48.840;9.188;2023-01-15T14:11:03;18.70;86.40
11599;DHT22;5855;48.840;9.188;2023-01-15T14:13:57;17.80;84.40
11599;DHT22;5855;48.840;9.188;2023-01-15T14:16:38;16.40;87.10
11599;DHT22;5855;48.840;9.188;2023-01-15T14:19:39;15.90;87.80
11599;DHT22;5855;48.840;9.188;2023-01-15T14:22:31;16.70;89.60
11599;DHT22;5855;48.840;9.188;2023-01-15T14:25:20;15.50;85.20
11599;DHT22;5855;48.840;9.188;2023-01-15T14:28:01;14.70;90.70
11599;DHT22;5855;48.840;9.188;2023-01-15T14:30:49;15.40;89.20
11599;DHT22;5855;48.840;9.188;2023-01-15T14:33:28;15.20;87.70
11599;DHT22;5855;48.840;9.188;2023-01-15T14:36:07;14.90;88.60
11599;DHT22;5855;48.840;9.188;2023-01-15T14:38:35;15.10;89.90
11599;DHT22;5855;48.840;9.188;2023-01-15T14:41:05;14.90;87.00
11599;DHT22;5855;48.840;9.188;2023-01-15T14:43:34;14.40;87.10
11599;DHT22;5855;48.840;9.188;2023-01-15T14:46:13;12.80;90.90
11599;DHT22;5855;48.840;9.188;2023-01-15T14:48:40;12.30;92.40
11599;DHT22;5855;48.840;9.188;2023-01-15T14:51:08;12.80;92.90
11599;DHT22;5855;48.840;9.188;2023-01-15T14:53:39;12.70;92.50
11599;DHT22;5855;48.840;9.188;2023-01-15T14:56:20;12.60;92.90
11599;DHT22;5855;48.840;9.188;2023-01-15T14:58:58;12.40;93.60
11599;DHT22;5855;48.840;9.188;2023-01-15T15:01:36;12.00;95.70
11599;DHT22;5855;48.840;9.188;2023-01-15T15:04:12;11.40;96.40
11599;DHT22;5855;48.840;9.188;2023-01-15T15:06:46;11.50;97.70
11599;DHT22;5855;48.840;9.188;2023-01-15T15:09:24;11.90;97.10
11599;DHT22;5855;48.840;9.188;2023-01-15T15:11:53;11.50;97.00
11599;DHT22;5855;48.840;9.188;2023-01-15T15:14:42;11.30;97.90
11599;DHT22;5855;48.840;9.188;2023-01-15T15:17:19;10.60;99.30
11599;DHT22;5855;48.840;9.188;2023-01-15T15:19:54;10.20;99.90
11599;DHT22;5855;48.840;9.188;2023-01-15T15:22:26;9.30;99.90
11599;DHT22;5855;48.840;9.188;2023-01-15T15:24:57;8.40;99.90
11599;DHT22;5855;48.840;9.188;2023-01-15T15:27:28;8.00;99.90
11599;DHT22;5855;48.840;9.188;2023-01-15T15:30:03;7.40;99.90
11599;DHT22;5855;48.840;9.188;2023-01-15T15:32:32;7.10;99.90
11599;DHT22;5855;48.840;9.188;2023-01-15T15:35:05;6.80;99.90
11599;DHT22;5855;48.840;9.188;2023-01-15T15:37:43;6.60;99.90
11599;DHT22;5855;48.840;9.188;2023-01-15T15:40:15;6.30;99.90
11599;DHT22;5855;48.840;9.188;2023-01-15T15:42:48;6.20;99.90
11599;DHT22;5855;48.840;9.188;2023-01-15T15:45:33;6.10;99.90
11599;DHT22;5855;48.840;9.188;2023-01-15T15:48:21;6.00;99.90
11599;DHT22;5855;48.840;9.188;2023-01-15T15:51:26;5.90;99.90
11599;DHT22;5855;48.840;9.188;2023-01-15T15:54:11;5.80;99.90
11599;DHT22;5855;48.840;9.188;2023-01-15T15:56:41;5.70;99.90
11599;DHT22;5855;48.840;9.188;2023-01-15T15:59:15;5.60;99.90
11599;DHT22;5855;48.840;9.188;2023-01-15T16:01:43;5.60;99.90
11599;DHT22;5855;48.840;9.188;2023-01-15T16:04:16;5.60;99.90
11599;DHT22;5855;48.840;9.188;2023-01-15T16:06:43;5.60;99.90
11599;DHT22;5855;48.840;9.188;2023-01-15T16:09:10;5.50;99.90
11599;DHT22;5855;48.840;9.188;2023-01-15T16:11:37;5.50;99.90
11599;DHT22;5855;48.840;9.188;2023-01-15T16:14:07;5.40;99.90
11599;DHT22;5855;48.840;9.188;2023-01-15T16:16:37;5.30;99.90
11599;DHT22;5855;48.840;9.188;2023-01-15T16:19:08;5.30;99.90
11599;DHT22;5855;48.840;9.188;2023-01-15T16:21:43;5.30;99.90
11599;DHT22;5855;48.840;9.188;2023-01-15T16:24:21;5.20;99.90
11599;DHT22;5855;48.840;9.188;2023-01-15T16:26:53;5.10;99.90
11599;DHT22;5855;48.840;9.188;2023-01-15T16:29:24;5.10;99.90